Time;durP1;ratioP1;P1;durP2;ratioP2;P2;SDS_P1;SDS_P2;PMS_P1;PMS_P2;Temp;Humidity;BMP_temperature;BMP_pressure;BME280_temperature;BME280_humidity;BME280_pressure;Samples;Min_cycle;Max_cycle;Signal;HPM_P1;HPM_P2
2021/04/11 00:02:19;;;;;;;;;12.75;12.00;;;;;;;;3724444;38;17729;-53
2021/04/11 00:04:44;;;;;;;;;13.25;10.00;;;;;;;;3724320;38;17754;-51
2021/04/11 00:07:10;;;;;;;;;15.50;14.00;;;;;;;;3724949;38;20754;-51
2021/04/11 00:09:36;;;;;;;;;13.00;11.75;;;;;;;;3725039;37;17734;-51
2021/04/11 00:12:02;;;;;;;;;15.00;10.25;;;;;;;;3724992;38;17715;-51
2021/04/11 00:14:28;;;;;;;;;14.75;12.00;;;;;;;;3724862;37;17728;-51
2021/04/11 00:16:54;;;;;;;;;16.25;13.50;;;;;;;;3724733;37;20782;-51
2021/04/11 00:19:23;;;;;;;;;19.00;13.75;;;;;;;;3724824;38;17720;-51
2021/04/11 00:21:49;;;;;;;;;13.75;10.00;;;;;;;;3724817;37;20769;-51
2021/04/11 00:24:14;;;;;;;;;13.00;12.00;;;;;;;;3724955;38;17695;-50
2021/04/11 00:26:41;;;;;;;;;9.00;9.00;;;;;;;;3725044;38;17708;-52
2021/04/11 00:29:07;;;;;;;;;13.00;12.75;;;;;;;;3725069;37;17708;-51
2021/04/11 00:31:32;;;;;;;;;14.00;12.00;;;;;;;;3724893;37;20764;-50
2021/04/11 00:33:59;;;;;;;;;15.50;11.75;;;;;;;;3724798;37;17715;-50
2021/04/11 00:36:25;;;;;;;;;12.50;12.25;;;;;;;;3724950;37;17686;-51
2021/04/11 00:38:52;;;;;;;;;12.50;10.25;;;;;;;;3724859;38;20709;-53
2021/04/11 00:41:26;;;;;;;;;13.25;10.50;;;;;;;;3724540;37;20710;-52
2021/04/11 00:43:52;;;;;;;;;13.25;12.25;;;;;;;;3724761;37;20709;-50
2021/04/11 00:46:40;;;;;;;;;13.50;12.25;;;;;;;;3724975;38;20688;-52
2021/04/11 00:49:13;;;;;;;;;13.25;11.00;;;;;;;;3724987;38;20756;-53
2021/04/11 00:51:39;;;;;;;;;12.75;11.50;;;;;;;;3724884;38;20690;-52
2021/04/11 00:54:06;;;;;;;;;13.25;13.00;;;;;;;;3724874;37;20658;-51
2021/04/11 00:56:33;;;;;;;;;14.25;12.00;;;;;;;;3724791;38;20686;-52
2021/04/11 00:58:59;;;;;;;;;14.00;12.25;;;;;;;;3724700;38;20678;-51
2021/04/11 01:01:25;;;;;;;;;10.75;9.25;;;;;;;;3724465;38;20748;-52
2021/04/11 01:03:52;;;;;;;;;13.75;12.25;;;;;;;;3724751;37;21660;-52
2021/04/11 01:06:20;;;;;;;;;11.00;9.00;;;;;;;;3724916;38;18645;-50
2021/04/11 01:08:46;;;;;;;;;12.25;11.50;;;;;;;;3724860;38;21588;-51
2021/04/11 01:11:19;;;;;;;;;9.50;9.00;;;;;;;;3724730;38;21627;-51
2021/04/11 01:14:05;;;;;;;;;13.00;11.75;;;;;;;;3724674;38;21559;-51
2021/04/11 01:16:32;;;;;;;;;11.00;8.50;;;;;;;;3724626;37;21670;-51
2021/04/11 01:18:58;;;;;;;;;17.75;11.75;;;;;;;;3724641;38;21608;-52
2021/04/11 01:21:38;;;;;;;;;12.50;11.75;;;;;;;;3724657;37;21634;-51
2021/04/11 01:24:22;;;;;;;;;17.00;12.25;;;;;;;;3724824;38;21595;-50
2021/04/11 01:26:51;;;;;;;;;14.00;13.00;;;;;;;;3724676;37;21669;-52
2021/04/11 01:29:18;;;;;;;;;12.50;12.00;;;;;;;;3724734;37;21667;-52
2021/04/11 01:31:45;;;;;;;;;13.00;11.00;;;;;;;;3724814;38;21637;-52
2021/04/11 01:34:11;;;;;;;;;14.00;13.25;;;;;;;;3724794;37;21607;-52
2021/04/11 01:36:39;;;;;;;;;16.25;12.50;;;;;;;;3724730;38;21662;-51
2021/04/11 01:39:09;;;;;;;;;11.25;11.00;;;;;;;;3724906;37;21610;-52
2021/04/11 01:41:39;;;;;;;;;18.25;13.75;;;;;;;;3724833;37;21672;-52
2021/04/11 01:44:06;;;;;;;;;13.25;12.25;;;;;;;;3724803;37;21604;-52
2021/04/11 01:46:32;;;;;;;;;12.75;12.00;;;;;;;;3724680;38;21638;-52
2021/04/11 01:48:59;;;;;;;;;13.00;9.75;;;;;;;;3724766;38;21594;-51
2021/04/11 01:51:31;;;;;;;;;12.50;11.25;;;;;;;;3724807;37;21562;-51
2021/04/11 01:53:57;;;;;;;;;14.25;12.50;;;;;;;;3724996;37;21574;-52
2021/04/11 01:56:24;;;;;;;;;13.25;10.75;;;;;;;;3724920;38;21591;-52
2021/04/11 01:58:49;;;;;;;;;18.00;14.00;;;;;;;;3724798;37;21587;-51
2021/04/11 02:01:29;;;;;;;;;14.75;13.75;;;;;;;;3724868;37;21623;-52
2021/04/11 02:03:56;;;;;;;;;14.00;12.50;;;;;;;;3724726;37;18672;-52
2021/04/11 02:06:30;;;;;;;;;14.25;13.25;;;;;;;;3724815;38;21567;-50
2021/04/11 02:09:00;;;;;;;;;13.25;12.50;;;;;;;;3724856;37;21645;-51
2021/04/11 02:11:27;;;;;;;;;13.00;12.75;;;;;;;;3724794;37;21629;-52
2021/04/11 02:13:53;;;;;;;;;13.25;13.00;;;;;;;;3724715;37;21628;-51
2021/04/11 02:16:26;;;;;;;;;15.25;14.00;;;;;;;;3724301;37;21548;-52
2021/04/11 02:19:02;;;;;;;;;13.75;13.25;;;;;;;;3724763;37;18537;-52
2021/04/11 02:21:28;;;;;;;;;13.25;12.00;;;;;;;;3724812;37;21621;-52
2021/04/11 02:23:54;;;;;;;;;13.00;12.25;;;;;;;;3724824;38;21549;-52
2021/04/11 02:26:20;;;;;;;;;12.25;12.00;;;;;;;;3724727;37;18544;-52
2021/04/11 02:28:45;;;;;;;;;11.00;8.25;;;;;;;;3723725;37;21551;-52
2021/04/11 02:31:17;;;;;;;;;14.00;11.75;;;;;;;;3724386;37;18547;-52
2021/04/11 02:33:53;;;;;;;;;11.50;10.25;;;;;;;;3724529;37;18533;-53
2021/04/11 02:36:21;;;;;;;;;14.50;11.25;;;;;;;;3724382;37;21453;-53
2021/04/11 02:38:48;;;;;;;;;12.75;12.50;;;;;;;;3724520;38;21528;-53
2021/04/11 02:41:15;;;;;;;;;14.00;11.75;;;;;;;;3724621;38;21526;-52
2021/04/11 02:43:41;;;;;;;;;17.50;14.25;;;;;;;;3724707;38;21562;-52
2021/04/11 02:46:08;;;;;;;;;16.25;14.25;;;;;;;;3724993;38;21571;-53
2021/04/11 02:48:34;;;;;;;;;16.00;9.25;;;;;;;;3724768;37;21570;-50
2021/04/11 02:51:00;;;;;;;;;15.75;12.00;;;;;;;;3724741;37;21510;-52
2021/04/11 02:53:26;;;;;;;;;14.00;12.50;;;;;;;;3724888;37;18504;-50
2021/04/11 02:55:53;;;;;;;;;14.00;12.50;;;;;;;;3724757;38;18502;-51
2021/04/11 02:58:20;;;;;;;;;16.25;13.75;;;;;;;;3724713;37;21554;-54
2021/04/11 03:00:48;;;;;;;;;16.00;13.00;;;;;;;;3724965;37;21505;-50
2021/04/11 03:03:13;;;;;;;;;26.50;23.00;;;;;;;;3724913;38;21510;-50
2021/04/11 03:05:40;;;;;;;;;23.25;19.50;;;;;;;;3724974;38;21670;-51
2021/04/11 03:08:07;;;;;;;;;25.75;19.00;;;;;;;;3724881;37;18501;-51
2021/04/11 03:10:53;;;;;;;;;12.00;11.50;;;;;;;;3724962;38;21502;-51
2021/04/11 03:13:20;;;;;;;;;21.25;17.00;;;;;;;;3724796;37;21465;-51
2021/04/11 03:15:47;;;;;;;;;16.50;13.75;;;;;;;;3724878;37;21592;-51
2021/04/11 03:18:13;;;;;;;;;16.50;13.25;;;;;;;;3724968;37;21634;-51
2021/04/11 03:20:40;;;;;;;;;22.25;13.75;;;;;;;;3724881;38;21443;-51
2021/04/11 03:23:07;;;;;;;;;19.50;16.50;;;;;;;;3724906;38;21637;-50
2021/04/11 03:25:35;;;;;;;;;16.00;13.25;;;;;;;;3724874;37;21578;-50
2021/04/11 03:28:04;;;;;;;;;18.75;16.25;;;;;;;;3724934;37;21589;-51
2021/04/11 03:30:50;;;;;;;;;11.00;11.00;;;;;;;;3724931;37;21591;-51
2021/04/11 03:33:17;;;;;;;;;19.00;16.00;;;;;;;;3724918;37;21549;-50
2021/04/11 03:35:44;;;;;;;;;15.00;11.50;;;;;;;;3724870;38;21572;-50
2021/04/11 03:38:11;;;;;;;;;1.00;0.25;;;;;;;;3724780;37;21565;-50
2021/04/11 03:40:39;;;;;;;;;14.50;14.25;;;;;;;;3724875;38;21455;-51
2021/04/11 03:43:17;;;;;;;;;20.00;15.25;;;;;;;;3724443;38;21683;-51
2021/04/11 03:45:43;;;;;;;;;6.75;6.75;;;;;;;;3724903;38;21594;-51
2021/04/11 03:48:26;;;;;;;;;15.75;15.25;;;;;;;;3724735;37;21721;-52
2021/04/11 03:51:00;;;;;;;;;22.00;17.50;;;;;;;;3724868;37;18409;-51
2021/04/11 03:53:36;;;;;;;;;15.75;14.00;;;;;;;;3724828;37;21580;-50
2021/04/11 03:56:06;;;;;;;;;19.25;16.25;;;;;;;;3724981;38;21560;-49
2021/04/11 03:58:34;;;;;;;;;16.75;16.50;;;;;;;;3724819;38;21576;-51
2021/04/11 04:01:01;;;;;;;;;14.00;13.50;;;;;;;;3724800;37;21587;-51
2021/04/11 04:03:30;;;;;;;;;17.50;17.50;;;;;;;;3724876;38;21476;-50
2021/04/11 04:06:00;;;;;;;;;18.00;15.75;;;;;;;;3724496;38;21556;-51
2021/04/11 04:08:26;;;;;;;;;18.50;17.00;;;;;;;;3724318;38;21555;-50
2021/04/11 04:11:29;;;;;;;;;18.75;15.00;;;;;;;;3725065;37;21523;-51
2021/04/11 04:14:14;;;;;;;;;16.75;14.25;;;;;;;;3724931;37;18421;-51
2021/04/11 04:16:58;;;;;;;;;17.75;13.00;;;;;;;;3724983;38;21557;-51
2021/04/11 04:20:05;;;;;;;;;18.00;15.00;;;;;;;;3724945;38;21099;-50
2021/04/11 04:22:43;;;;;;;;;20.75;16.50;;;;;;;;3724750;37;21551;-50
2021/04/11 04:25:29;;;;;;;;;17.00;15.00;;;;;;;;3724851;37;21546;-50
2021/04/11 04:28:15;;;;;;;;;16.00;15.00;;;;;;;;3724456;38;21523;-52
2021/04/11 04:31:12;;;;;;;;;17.25;15.25;;;;;;;;3724893;37;21527;-51
2021/04/11 04:33:56;;;;;;;;;16.00;16.00;;;;;;;;3725007;38;21530;-51
2021/04/11 04:36:42;;;;;;;;;24.50;19.50;;;;;;;;3724858;38;21576;-51
2021/04/11 04:39:27;;;;;;;;;28.50;22.75;;;;;;;;3724790;38;21534;-51
2021/04/11 04:42:08;;;;;;;;;33.25;24.50;;;;;;;;3724801;38;21513;-50
2021/04/11 04:44:38;;;;;;;;;26.00;23.00;;;;;;;;3724868;37;21508;-51
2021/04/11 04:47:07;;;;;;;;;21.75;19.00;;;;;;;;3724754;37;21512;-52
2021/04/11 04:49:56;;;;;;;;;23.25;22.00;;;;;;;;3724915;37;21485;-52
2021/04/11 04:52:25;;;;;;;;;31.75;28.50;;;;;;;;3724965;37;21498;-51
2021/04/11 04:55:03;;;;;;;;;28.50;22.75;;;;;;;;3724896;38;21482;-50
2021/04/11 04:57:44;;;;;;;;;26.50;22.00;;;;;;;;3724368;38;21494;-50
2021/04/11 05:00:20;;;;;;;;;29.25;25.00;;;;;;;;3724866;38;21502;-50
2021/04/11 05:02:49;;;;;;;;;24.00;21.50;;;;;;;;3724906;38;21504;-51
2021/04/11 05:05:17;;;;;;;;;24.25;22.25;;;;;;;;3724886;37;21462;-52
2021/04/11 05:07:45;;;;;;;;;29.75;26.25;;;;;;;;3724895;37;21492;-50
2021/04/11 05:10:13;;;;;;;;;28.75;24.50;;;;;;;;3724851;37;21488;-52
2021/04/11 05:12:46;;;;;;;;;28.50;23.25;;;;;;;;3724791;37;21462;-51
2021/04/11 05:15:15;;;;;;;;;47.50;36.25;;;;;;;;3724870;38;21450;-51
2021/04/11 05:17:53;;;;;;;;;39.75;36.25;;;;;;;;3724867;37;21482;-51
2021/04/11 05:20:23;;;;;;;;;30.00;28.00;;;;;;;;3724692;38;21465;-50
2021/04/11 05:23:06;;;;;;;;;28.75;25.75;;;;;;;;3724934;37;21440;-52
2021/04/11 05:25:45;;;;;;;;;29.50;25.75;;;;;;;;3724854;37;21458;-52
2021/04/11 05:28:15;;;;;;;;;25.50;21.25;;;;;;;;3724779;38;21446;-51
2021/04/11 05:30:44;;;;;;;;;21.75;18.00;;;;;;;;3724855;38;21443;-51
2021/04/11 05:33:13;;;;;;;;;18.00;17.00;;;;;;;;3724878;38;21446;-51
2021/04/11 05:35:51;;;;;;;;;17.50;15.75;;;;;;;;3724770;38;21414;-51
2021/04/11 05:38:25;;;;;;;;;20.75;16.75;;;;;;;;3724843;37;21357;-52
2021/04/11 05:40:55;;;;;;;;;12.00;11.00;;;;;;;;3724825;37;21348;-51
2021/04/11 05:43:24;;;;;;;;;16.00;13.25;;;;;;;;3724473;38;21291;-51
2021/04/11 05:46:08;;;;;;;;;10.00;9.00;;;;;;;;3724844;37;21316;-51
2021/04/11 05:48:49;;;;;;;;;14.00;13.00;;;;;;;;3724863;38;21321;-52
2021/04/11 05:51:26;;;;;;;;;14.50;13.00;;;;;;;;3724844;38;21261;-51
2021/04/11 05:54:10;;;;;;;;;14.50;13.00;;;;;;;;3724914;38;21317;-51
2021/04/11 05:56:40;;;;;;;;;16.00;13.00;;;;;;;;3724954;38;21357;-50
2021/04/11 05:59:09;;;;;;;;;19.75;16.00;;;;;;;;3724879;37;21324;-51
2021/04/11 06:01:39;;;;;;;;;17.25;15.50;;;;;;;;3724864;38;21302;-53
2021/04/11 06:04:11;;;;;;;;;14.50;12.00;;;;;;;;3724891;38;21311;-51
2021/04/11 06:06:51;;;;;;;;;19.00;16.00;;;;;;;;3724803;38;21309;-51
2021/04/11 06:09:31;;;;;;;;;14.75;12.00;;;;;;;;3724798;37;21316;-51
2021/04/11 06:12:31;;;;;;;;;17.50;13.50;;;;;;;;3724896;38;21276;-51
2021/04/11 06:15:00;;;;;;;;;13.00;12.25;;;;;;;;3724819;37;21298;-51
2021/04/11 06:17:29;;;;;;;;;17.00;13.50;;;;;;;;3724565;38;21291;-52
2021/04/11 06:19:55;;;;;;;;;20.00;19.25;;;;;;;;3724872;37;20919;-53
2021/04/11 06:22:30;;;;;;;;;14.00;12.75;;;;;;;;3724817;37;21258;-51
2021/04/11 06:25:05;;;;;;;;;15.75;14.25;;;;;;;;3724834;37;18226;-52
2021/04/11 06:27:37;;;;;;;;;14.00;13.75;;;;;;;;3724761;38;21278;-51
2021/04/11 06:30:15;;;;;;;;;15.00;13.00;;;;;;;;3724903;37;21236;-52
2021/04/11 06:33:09;;;;;;;;;13.25;13.25;;;;;;;;3724646;38;21252;-53
2021/04/11 06:35:59;;;;;;;;;16.00;14.50;;;;;;;;3724793;38;21287;-54
2021/04/11 06:38:27;;;;;;;;;14.00;12.75;;;;;;;;3724781;37;21332;-54
2021/04/11 06:41:27;;;;;;;;;17.00;14.25;;;;;;;;3725026;37;21245;-53
2021/04/11 06:44:31;;;;;;;;;15.00;13.25;;;;;;;;3724721;38;21251;-53
2021/04/11 06:47:16;;;;;;;;;15.00;13.50;;;;;;;;3725046;38;21267;-53
2021/04/11 06:50:08;;;;;;;;;14.75;13.00;;;;;;;;3724777;37;21260;-53
2021/04/11 06:52:46;;;;;;;;;13.00;13.00;;;;;;;;3725065;37;21257;-53
2021/04/11 06:55:24;;;;;;;;;19.00;15.25;;;;;;;;3724919;37;21195;-56
2021/04/11 06:58:12;;;;;;;;;12.00;10.50;;;;;;;;3724975;38;21250;-53
2021/04/11 07:00:48;;;;;;;;;14.25;12.00;;;;;;;;3725020;37;21165;-58
2021/04/11 07:03:32;;;;;;;;;15.50;15.25;;;;;;;;3725050;37;21191;-54
2021/04/11 07:06:16;;;;;;;;;13.25;11.50;;;;;;;;3724985;37;21256;-54
2021/04/11 07:09:00;;;;;;;;;16.75;14.50;;;;;;;;3725104;38;21252;-54
2021/04/11 07:11:49;;;;;;;;;13.50;12.50;;;;;;;;3724966;37;21234;-56
2021/04/11 07:14:35;;;;;;;;;17.75;16.00;;;;;;;;3724753;37;21213;-54
2021/04/11 07:17:35;;;;;;;;;15.50;14.00;;;;;;;;3724850;37;21203;-55
2021/04/11 07:20:19;;;;;;;;;11.00;10.00;;;;;;;;3724987;37;21225;-54
2021/04/11 07:23:03;;;;;;;;;10.25;10.00;;;;;;;;3724918;38;21275;-54
2021/04/11 07:25:47;;;;;;;;;10.25;7.75;;;;;;;;3724984;38;21209;-55
2021/04/11 07:28:31;;;;;;;;;11.00;10.00;;;;;;;;3724924;37;21108;-56
2021/04/11 07:31:19;;;;;;;;;10.50;10.00;;;;;;;;3724962;38;21177;-55
2021/04/11 07:34:06;;;;;;;;;10.00;9.00;;;;;;;;3725128;37;21153;-54
2021/04/11 07:36:49;;;;;;;;;14.00;11.25;;;;;;;;3724993;38;20892;-54
2021/04/11 07:39:23;;;;;;;;;10.75;10.00;;;;;;;;3724967;37;21132;-53
2021/04/11 07:42:12;;;;;;;;;10.00;9.00;;;;;;;;3725134;37;21121;-53
2021/04/11 07:44:45;;;;;;;;;14.25;12.25;;;;;;;;3724508;37;21145;-54
2021/04/11 07:47:29;;;;;;;;;10.00;9.50;;;;;;;;3724949;37;21129;-54
2021/04/11 07:50:21;;;;;;;;;10.75;10.00;;;;;;;;3725242;38;21144;-55
2021/04/11 07:53:18;;;;;;;;;11.50;10.00;;;;;;;;3725020;37;21138;-54
2021/04/11 07:56:02;;;;;;;;;13.00;11.00;;;;;;;;3725264;37;21126;-55
2021/04/11 07:58:44;;;;;;;;;8.50;8.50;;;;;;;;3725197;38;21168;-54
2021/04/11 08:01:35;;;;;;;;;8.75;8.00;;;;;;;;3725114;37;21109;-56
2021/04/11 08:04:19;;;;;;;;;12.00;9.50;;;;;;;;3725019;37;21011;-54
2021/04/11 08:07:13;;;;;;;;;12.75;12.00;;;;;;;;3725011;38;21083;-53
2021/04/11 08:09:49;;;;;;;;;8.50;8.50;;;;;;;;3725248;37;21077;-53
2021/04/11 08:12:39;;;;;;;;;6.25;6.25;;;;;;;;3725303;38;21034;-55
2021/04/11 08:15:27;;;;;;;;;8.25;7.25;;;;;;;;3724799;38;21086;-50
2021/04/11 08:18:11;;;;;;;;;9.75;9.25;;;;;;;;3724920;38;21007;-57
2021/04/11 08:21:08;;;;;;;;;6.25;6.00;;;;;;;;3724851;38;21208;-64
2021/04/11 08:24:03;;;;;;;;;8.50;8.50;;;;;;;;3725024;38;20949;-58
2021/04/11 08:26:44;;;;;;;;;7.50;7.00;;;;;;;;3725072;37;21088;-59
2021/04/11 08:29:39;;;;;;;;;8.75;7.75;;;;;;;;3725026;38;20996;-62
2021/04/11 08:32:24;;;;;;;;;8.25;7.00;;;;;;;;3725023;37;21024;-58
2021/04/11 08:35:09;;;;;;;;;11.00;10.50;;;;;;;;3725308;37;21024;-58
2021/04/11 08:37:49;;;;;;;;;9.75;8.25;;;;;;;;3725257;37;21137;-58
2021/04/11 08:40:35;;;;;;;;;10.00;10.00;;;;;;;;3724594;38;20720;-59
2021/04/11 08:43:19;;;;;;;;;9.25;9.00;;;;;;;;3725029;38;21149;-60
2021/04/11 08:46:06;;;;;;;;;10.00;9.00;;;;;;;;3724716;37;21122;-59
2021/04/11 08:49:06;;;;;;;;;9.00;8.00;;;;;;;;3724550;37;21079;-59
2021/04/11 08:51:45;;;;;;;;;9.25;8.00;;;;;;;;3724866;37;21063;-59
2021/04/11 08:54:35;;;;;;;;;7.25;7.25;;;;;;;;3725172;37;20993;-59
2021/04/11 08:57:19;;;;;;;;;9.75;9.75;;;;;;;;3724234;38;20926;-59
2021/04/11 09:00:06;;;;;;;;;8.25;8.25;;;;;;;;3725403;37;20550;-59
2021/04/11 09:02:41;;;;;;;;;9.75;9.50;;;;;;;;3725086;37;20965;-57
2021/04/11 09:05:41;;;;;;;;;10.50;9.75;;;;;;;;3725716;38;21074;-59
2021/04/11 09:08:29;;;;;;;;;7.75;7.00;;;;;;;;3725311;37;21001;-58
2021/04/11 09:11:14;;;;;;;;;9.50;9.00;;;;;;;;3724756;38;20938;-58
2021/04/11 09:13:52;;;;;;;;;8.75;8.00;;;;;;;;3724308;37;20946;-58
2021/04/11 09:16:53;;;;;;;;;12.00;12.00;;;;;;;;3724541;37;20936;-58
2021/04/11 09:19:22;;;;;;;;;9.50;8.50;;;;;;;;3724724;37;21052;-58
2021/04/11 09:22:02;;;;;;;;;10.75;9.25;;;;;;;;3724730;38;20957;-59
2021/04/11 09:24:35;;;;;;;;;9.25;7.50;;;;;;;;3725077;38;20931;-59
2021/04/11 09:27:27;;;;;;;;;8.00;8.00;;;;;;;;3725035;37;20921;-58
2021/04/11 09:30:11;;;;;;;;;10.50;9.75;;;;;;;;3724989;38;20923;-58
2021/04/11 09:32:56;;;;;;;;;10.25;9.00;;;;;;;;3724983;38;20698;-56
2021/04/11 09:35:29;;;;;;;;;9.75;9.75;;;;;;;;3724928;38;20894;-56
2021/04/11 09:38:16;;;;;;;;;8.50;8.50;;;;;;;;3725042;38;20897;-57
2021/04/11 09:40:55;;;;;;;;;8.00;7.00;;;;;;;;3725012;37;20889;-57
2021/04/11 09:43:41;;;;;;;;;10.00;9.00;;;;;;;;3724947;37;20875;-56
2021/04/11 09:46:18;;;;;;;;;12.75;11.75;;;;;;;;3725046;37;20894;-58
2021/04/11 09:48:58;;;;;;;;;12.25;8.25;;;;;;;;3724901;37;20924;-57
2021/04/11 09:51:43;;;;;;;;;10.00;9.50;;;;;;;;3724926;37;20900;-56
2021/04/11 09:54:24;;;;;;;;;8.50;8.00;;;;;;;;3725430;37;20884;-58
2021/04/11 09:57:08;;;;;;;;;7.00;7.00;;;;;;;;3725267;38;20874;-59
2021/04/11 10:00:00;;;;;;;;;7.00;7.00;;;;;;;;3725239;37;20889;-58
2021/04/11 10:02:45;;;;;;;;;5.25;5.25;;;;;;;;3725078;37;20881;-59
2021/04/11 10:05:23;;;;;;;;;8.00;7.25;;;;;;;;3726734;37;20860;-57
2021/04/11 10:08:09;;;;;;;;;11.00;8.50;;;;;;;;3725751;37;20861;-57
2021/04/11 10:11:00;;;;;;;;;8.00;8.00;;;;;;;;3725020;37;20853;-59
2021/04/11 10:13:58;;;;;;;;;4.00;3.25;;;;;;;;3725001;37;20873;-59
2021/04/11 10:16:39;;;;;;;;;9.00;8.00;;;;;;;;3725064;38;20867;-55
2021/04/11 10:19:37;;;;;;;;;9.25;7.00;;;;;;;;3724965;37;20807;-57
2021/04/11 10:22:21;;;;;;;;;8.50;8.25;;;;;;;;3724937;37;20945;-55
2021/04/11 10:25:18;;;;;;;;;11.00;9.00;;;;;;;;3724912;37;20850;-56
2021/04/11 10:28:13;;;;;;;;;6.00;6.00;;;;;;;;3724911;38;20943;-56
2021/04/11 10:30:40;;;;;;;;;8.50;7.50;;;;;;;;3725147;37;20835;-57
2021/04/11 10:33:23;;;;;;;;;8.00;7.00;;;;;;;;3724900;38;20829;-59
2021/04/11 10:35:59;;;;;;;;;8.75;7.25;;;;;;;;3724930;38;20887;-55
2021/04/11 10:38:28;;;;;;;;;9.00;9.00;;;;;;;;3724873;37;20858;-55
2021/04/11 10:41:12;;;;;;;;;6.50;6.50;;;;;;;;3724844;37;20809;-55
2021/04/11 10:43:49;;;;;;;;;10.25;9.50;;;;;;;;3724719;38;20840;-56
2021/04/11 10:46:31;;;;;;;;;9.00;8.50;;;;;;;;3724944;37;20875;-56
2021/04/11 10:49:14;;;;;;;;;10.25;9.75;;;;;;;;3725350;37;20834;-57
2021/04/11 10:51:53;;;;;;;;;8.25;7.25;;;;;;;;3724946;38;20878;-56
2021/04/11 10:54:37;;;;;;;;;5.75;5.75;;;;;;;;3725164;37;20804;-55
2021/04/11 10:57:20;;;;;;;;;8.00;8.00;;;;;;;;3725107;38;20833;-56
2021/04/11 10:59:57;;;;;;;;;9.75;7.00;;;;;;;;3725193;37;20399;-56
2021/04/11 11:02:49;;;;;;;;;6.00;6.00;;;;;;;;3725342;37;20733;-56
2021/04/11 11:05:46;;;;;;;;;8.00;8.00;;;;;;;;3725255;38;21108;-55
2021/04/11 11:08:35;;;;;;;;;10.50;10.50;;;;;;;;3725028;38;20786;-55
2021/04/11 11:11:23;;;;;;;;;11.25;10.00;;;;;;;;3725154;37;20882;-56
2021/04/11 11:14:14;;;;;;;;;10.00;8.25;;;;;;;;3724999;37;20835;-55
2021/04/11 11:17:12;;;;;;;;;6.25;6.25;;;;;;;;3725107;38;20802;-55
2021/04/11 11:20:03;;;;;;;;;7.00;5.25;;;;;;;;3724789;38;20777;-55
2021/04/11 11:22:59;;;;;;;;;;;;;;;;;;;;;
2021/04/11 11:25:45;;;;;;;;;6.75;6.25;;;;;;;;3725353;37;20706;-58
2021/04/11 11:28:28;;;;;;;;;6.25;6.25;;;;;;;;3725359;38;20779;-61
2021/04/11 11:31:12;;;;;;;;;7.00;6.25;;;;;;;;3724830;37;20768;-60
2021/04/11 11:33:56;;;;;;;;;7.00;6.50;;;;;;;;3724306;38;20835;-59
2021/04/11 11:36:40;;;;;;;;;7.00;6.75;;;;;;;;3724265;38;20802;-60
2021/04/11 11:39:26;;;;;;;;;7.50;6.75;;;;;;;;3724551;38;20710;-63
2021/04/11 11:41:57;;;;;;;;;6.50;6.50;;;;;;;;3725051;37;20745;-60
2021/04/11 11:44:29;;;;;;;;;6.00;5.25;;;;;;;;3724562;37;20766;-61
2021/04/11 11:47:03;;;;;;;;;6.00;5.00;;;;;;;;3724784;38;20756;-61
2021/04/11 11:49:52;;;;;;;;;6.00;5.75;;;;;;;;3724475;37;20737;-61
2021/04/11 11:52:22;;;;;;;;;4.50;4.50;;;;;;;;3724460;38;20705;-64
2021/04/11 11:55:08;;;;;;;;;6.25;6.25;;;;;;;;3724905;38;20736;-59
2021/04/11 11:57:43;;;;;;;;;5.50;5.00;;;;;;;;3724910;38;20715;-58
2021/04/11 12:00:21;;;;;;;;;6.75;6.00;;;;;;;;3725064;37;20715;-59
2021/04/11 12:03:07;;;;;;;;;5.50;4.00;;;;;;;;3724765;38;20756;-59
2021/04/11 12:05:58;;;;;;;;;5.00;4.50;;;;;;;;3724745;38;20718;-58
2021/04/11 12:08:43;;;;;;;;;6.50;6.25;;;;;;;;3725112;37;20697;-59
2021/04/11 12:11:51;;;;;;;;;5.00;4.75;;;;;;;;3724833;37;20564;-60
2021/04/11 12:14:23;;;;;;;;;4.50;4.50;;;;;;;;3725058;38;20754;-59
2021/04/11 12:17:04;;;;;;;;;4.50;3.50;;;;;;;;3724911;38;20706;-59
2021/04/11 12:19:33;;;;;;;;;4.75;4.75;;;;;;;;3724979;37;20717;-59
2021/04/11 12:22:03;;;;;;;;;8.00;5.75;;;;;;;;3725106;38;20701;-59
2021/04/11 12:24:33;;;;;;;;;11.00;11.00;;;;;;;;3725588;37;20639;-58
2021/04/11 12:27:07;;;;;;;;;7.25;6.00;;;;;;;;3725086;38;20756;-58
2021/04/11 12:29:34;;;;;;;;;8.50;7.75;;;;;;;;3724935;38;20646;-59
2021/04/11 12:32:24;;;;;;;;;4.25;4.25;;;;;;;;3724892;37;20649;-58
2021/04/11 12:35:13;;;;;;;;;3.50;3.50;;;;;;;;3724967;37;20688;-59
2021/04/11 12:38:00;;;;;;;;;4.50;3.25;;;;;;;;3724830;38;20682;-58
2021/04/11 12:40:38;;;;;;;;;7.00;5.00;;;;;;;;3725011;37;20679;-58
2021/04/11 12:43:26;;;;;;;;;6.00;5.00;;;;;;;;3724906;37;20646;-60
2021/04/11 12:46:15;;;;;;;;;6.00;6.00;;;;;;;;3725078;38;20692;-59
2021/04/11 12:48:59;;;;;;;;;4.50;4.50;;;;;;;;3724937;37;20649;-57
2021/04/11 12:51:45;;;;;;;;;3.00;3.00;;;;;;;;3724921;38;20688;-59
2021/04/11 12:54:16;;;;;;;;;5.50;5.00;;;;;;;;3725119;37;20650;-60
2021/04/11 12:56:53;;;;;;;;;7.25;5.75;;;;;;;;3726643;38;20651;-59
2021/04/11 12:59:22;;;;;;;;;6.00;6.00;;;;;;;;3726556;38;20622;-57
2021/04/11 13:01:50;;;;;;;;;6.00;6.00;;;;;;;;3725100;38;20636;-59
2021/04/11 13:04:29;;;;;;;;;4.50;4.00;;;;;;;;3725088;38;20668;-58
2021/04/11 13:07:00;;;;;;;;;4.50;4.00;;;;;;;;3725112;38;20673;-58
2021/04/11 13:09:47;;;;;;;;;5.25;5.25;;;;;;;;3725017;37;20640;-59
2021/04/11 13:12:31;;;;;;;;;6.00;5.00;;;;;;;;3724970;37;20651;-60
2021/04/11 13:15:17;;;;;;;;;4.50;4.00;;;;;;;;3725060;37;20665;-58
2021/04/11 13:17:52;;;;;;;;;4.00;4.00;;;;;;;;3724956;38;20649;-61
2021/04/11 13:20:23;;;;;;;;;3.00;3.00;;;;;;;;3724912;38;20655;-60
2021/04/11 13:22:53;;;;;;;;;6.00;6.00;;;;;;;;3724983;38;20644;-58
2021/04/11 13:25:35;;;;;;;;;5.75;5.75;;;;;;;;3724666;37;20621;-59
2021/04/11 13:28:05;;;;;;;;;6.00;5.00;;;;;;;;3725138;37;20582;-58
2021/04/11 13:30:39;;;;;;;;;5.50;5.00;;;;;;;;3724970;38;21607;-59
2021/04/11 13:33:12;;;;;;;;;5.75;4.00;;;;;;;;3724758;37;20564;-58
2021/04/11 13:36:03;;;;;;;;;3.50;3.50;;;;;;;;3724425;37;21611;-57
2021/04/11 13:38:39;;;;;;;;;4.75;4.25;;;;;;;;3724536;37;20535;-59
2021/04/11 13:41:08;;;;;;;;;5.00;5.00;;;;;;;;3724853;38;21600;-59
2021/04/11 13:43:51;;;;;;;;;5.75;4.50;;;;;;;;3724824;37;21605;-59
2021/04/11 13:46:35;;;;;;;;;4.75;4.25;;;;;;;;3725170;37;20660;-60
2021/04/11 13:49:07;;;;;;;;;8.00;7.25;;;;;;;;3725064;38;21646;-59
2021/04/11 13:51:42;;;;;;;;;8.00;7.25;;;;;;;;3725066;38;21567;-59
2021/04/11 13:54:20;;;;;;;;;9.25;7.00;;;;;;;;3725124;37;21578;-60
2021/04/11 13:57:10;;;;;;;;;5.00;4.25;;;;;;;;3725171;37;21553;-60
2021/04/11 13:59:42;;;;;;;;;6.00;6.00;;;;;;;;3725002;38;21560;-60
2021/04/11 14:02:37;;;;;;;;;5.00;5.00;;;;;;;;3724629;38;21538;-59
2021/04/11 14:05:23;;;;;;;;;5.50;5.25;;;;;;;;3724448;38;21534;-60
2021/04/11 14:07:53;;;;;;;;;5.00;5.00;;;;;;;;3724263;37;21545;-60
2021/04/11 14:10:26;;;;;;;;;6.00;5.50;;;;;;;;3723580;38;21513;-59
2021/04/11 14:13:24;;;;;;;;;7.00;6.25;;;;;;;;3723884;37;21535;-60
2021/04/11 14:16:02;;;;;;;;;7.00;6.25;;;;;;;;3724234;37;21517;-59
2021/04/11 14:19:06;;;;;;;;;6.75;6.00;;;;;;;;3724485;38;21517;-59
2021/04/11 14:21:41;;;;;;;;;5.50;5.00;;;;;;;;3724710;37;21496;-58
2021/04/11 14:24:27;;;;;;;;;8.00;7.00;;;;;;;;3724539;37;21513;-60
2021/04/11 14:27:03;;;;;;;;;5.50;5.00;;;;;;;;3724679;37;21493;-59
2021/04/11 14:29:44;;;;;;;;;6.75;6.75;;;;;;;;3724893;38;21495;-59
2021/04/11 14:32:26;;;;;;;;;5.75;5.75;;;;;;;;3725027;38;21492;-59
2021/04/11 14:35:04;;;;;;;;;6.00;6.00;;;;;;;;3725125;37;21514;-60
2021/04/11 14:37:46;;;;;;;;;6.00;5.00;;;;;;;;3725206;38;21510;-59
2021/04/11 14:40:22;;;;;;;;;5.75;5.75;;;;;;;;3725126;38;21490;-59
2021/04/11 14:43:10;;;;;;;;;6.00;6.00;;;;;;;;3725198;37;21320;-60
2021/04/11 14:45:39;;;;;;;;;8.00;7.00;;;;;;;;3725016;37;21505;-59
2021/04/11 14:48:10;;;;;;;;;11.25;10.75;;;;;;;;3725235;37;21477;-59
2021/04/11 14:50:40;;;;;;;;;5.75;5.75;;;;;;;;3727484;37;21576;-59
2021/04/11 14:53:22;;;;;;;;;4.00;4.00;;;;;;;;3725162;38;21479;-59
2021/04/11 14:56:17;;;;;;;;;7.00;6.00;;;;;;;;3725402;37;21479;-60
2021/04/11 14:58:48;;;;;;;;;6.50;6.50;;;;;;;;3726024;37;21535;-59
2021/04/11 15:01:36;;;;;;;;;7.75;7.75;;;;;;;;3726034;38;21457;-58
2021/04/11 15:04:10;;;;;;;;;6.00;6.00;;;;;;;;3725220;37;21471;-60
2021/04/11 15:06:44;;;;;;;;;5.50;5.50;;;;;;;;3725194;38;21452;-60
2021/04/11 15:09:24;;;;;;;;;6.50;5.50;;;;;;;;3724957;37;21466;-58
2021/04/11 15:12:13;;;;;;;;;6.50;6.00;;;;;;;;3725078;38;21454;-60
2021/04/11 15:14:47;;;;;;;;;6.75;6.00;;;;;;;;3725179;38;21443;-58
2021/04/11 15:17:43;;;;;;;;;5.00;4.25;;;;;;;;3725085;38;21454;-62
2021/04/11 15:20:17;;;;;;;;;7.75;6.25;;;;;;;;3725101;38;21448;-61
2021/04/11 15:23:01;;;;;;;;;6.00;6.00;;;;;;;;3725374;38;21437;-60
2021/04/11 15:25:40;;;;;;;;;5.50;5.00;;;;;;;;3725165;38;21468;-60
2021/04/11 15:28:32;;;;;;;;;5.50;5.50;;;;;;;;3725261;37;21473;-61
2021/04/11 15:31:32;;;;;;;;;8.00;7.25;;;;;;;;3725307;37;21434;-61
2021/04/11 15:34:23;;;;;;;;;6.50;6.25;;;;;;;;3725145;37;21408;-59
2021/04/11 15:36:58;;;;;;;;;9.00;7.00;;;;;;;;3725297;37;21429;-60